sensor_id;sensor_type;location;lat;lon;timestamp;P1;durP1;ratioP1;P2;durP2;ratioP2
68653;SDS011;55636;51.108;13.622;2024-02-26T00:00:16;13.30;;;12.00;;
68653;SDS011;55636;51.108;13.622;2024-02-26T00:01:18;13.77;;;12.37;;
68653;SDS011;55636;51.108;13.622;2024-02-26T00:02:22;13.27;;;11.97;;
68653;SDS011;55636;51.108;13.622;2024-02-26T00:03:25;13.33;;;11.93;;
68653;SDS011;55636;51.108;13.622;2024-02-26T00:04:27;13.50;;;12.20;;
68653;SDS011;55636;51.108;13.622;2024-02-26T00:05:30;13.70;;;12.33;;
68653;SDS011;55636;51.108;13.622;2024-02-26T00:06:33;14.00;;;12.50;;
68653;SDS011;55636;51.108;13.622;2024-02-26T00:07:36;13.90;;;12.50;;
68653;SDS011;55636;51.108;13.622;2024-02-26T00:08:40;13.37;;;11.97;;
68653;SDS011;55636;51.108;13.622;2024-02-26T00:09:43;13.47;;;12.10;;
68653;SDS011;55636;51.108;13.622;2024-02-26T00:10:45;13.53;;;12.13;;
68653;SDS011;55636;51.108;13.622;2024-02-26T00:11:48;13.40;;;12.10;;
68653;SDS011;55636;51.108;13.622;2024-02-26T00:12:50;13.90;;;12.50;;
68653;SDS011;55636;51.108;13.622;2024-02-26T00:13:53;14.07;;;12.30;;
68653;SDS011;55636;51.108;13.622;2024-02-26T00:14:55;14.37;;;12.53;;
68653;SDS011;55636;51.108;13.622;2024-02-26T00:16:00;13.80;;;12.40;;
68653;SDS011;55636;51.108;13.622;2024-02-26T00:17:02;13.73;;;12.33;;
68653;SDS011;55636;51.108;13.622;2024-02-26T00:18:04;13.30;;;12.00;;
68653;SDS011;55636;51.108;13.622;2024-02-26T00:19:07;13.60;;;12.20;;
68653;SDS011;55636;51.108;13.622;2024-02-26T00:20:10;13.37;;;12.07;;
68653;SDS011;55636;51.108;13.622;2024-02-26T00:21:13;13.30;;;12.00;;
68653;SDS011;55636;51.108;13.622;2024-02-26T00:22:16;13.77;;;12.37;;
68653;SDS011;55636;51.108;13.622;2024-02-26T00:23:18;13.07;;;11.77;;
68653;SDS011;55636;51.108;13.622;2024-02-26T00:24:21;13.37;;;12.03;;
68653;SDS011;55636;51.108;13.622;2024-02-26T00:25:24;13.60;;;12.20;;
68653;SDS011;55636;51.108;13.622;2024-02-26T00:26:26;13.83;;;12.33;;
68653;SDS011;55636;51.108;13.622;2024-02-26T00:27:29;13.43;;;12.10;;
68653;SDS011;55636;51.108;13.622;2024-02-26T00:28:33;12.97;;;11.67;;
68653;SDS011;55636;51.108;13.622;2024-02-26T00:29:36;13.10;;;11.73;;
68653;SDS011;55636;51.108;13.622;2024-02-26T00:30:41;12.93;;;11.63;;
68653;SDS011;55636;51.108;13.622;2024-02-26T00:31:43;13.13;;;11.83;;
68653;SDS011;55636;51.108;13.622;2024-02-26T00:32:46;13.17;;;11.77;;
68653;SDS011;55636;51.108;13.622;2024-02-26T00:33:50;13.90;;;12.20;;
68653;SDS011;55636;51.108;13.622;2024-02-26T00:34:53;13.30;;;11.90;;
68653;SDS011;55636;51.108;13.622;2024-02-26T00:35:55;14.20;;;12.80;;
68653;SDS011;55636;51.108;13.622;2024-02-26T00:36:58;15.50;;;12.87;;
68653;SDS011;55636;51.108;13.622;2024-02-26T00:38:00;13.17;;;11.77;;
68653;SDS011;55636;51.108;13.622;2024-02-26T00:39:04;13.60;;;12.20;;
68653;SDS011;55636;51.108;13.622;2024-02-26T00:40:06;13.43;;;12.03;;
68653;SDS011;55636;51.108;13.622;2024-02-26T00:41:10;13.27;;;11.97;;
68653;SDS011;55636;51.108;13.622;2024-02-26T00:42:14;14.57;;;12.37;;
68653;SDS011;55636;51.108;13.622;2024-02-26T00:43:17;14.13;;;12.60;;
68653;SDS011;55636;51.108;13.622;2024-02-26T00:44:19;13.30;;;11.90;;
68653;SDS011;55636;51.108;13.622;2024-02-26T00:45:22;14.20;;;12.70;;
68653;SDS011;55636;51.108;13.622;2024-02-26T00:46:24;13.73;;;12.00;;
68653;SDS011;55636;51.108;13.622;2024-02-26T00:47:27;13.83;;;12.13;;
68653;SDS011;55636;51.108;13.622;2024-02-26T00:48:30;13.57;;;12.27;;
68653;SDS011;55636;51.108;13.622;2024-02-26T00:49:33;13.30;;;11.90;;
68653;SDS011;55636;51.108;13.622;2024-02-26T00:50:36;13.53;;;12.13;;
68653;SDS011;55636;51.108;13.622;2024-02-26T00:51:38;13.40;;;11.70;;
68653;SDS011;55636;51.108;13.622;2024-02-26T00:52:41;14.30;;;11.90;;
68653;SDS011;55636;51.108;13.622;2024-02-26T00:53:43;12.80;;;11.50;;
68653;SDS011;55636;51.108;13.622;2024-02-26T00:54:46;13.20;;;11.80;;
68653;SDS011;55636;51.108;13.622;2024-02-26T00:55:50;12.97;;;11.23;;
68653;SDS011;55636;51.108;13.622;2024-02-26T00:56:53;13.30;;;11.83;;
68653;SDS011;55636;51.108;13.622;2024-02-26T00:57:55;13.10;;;11.80;;
68653;SDS011;55636;51.108;13.622;2024-02-26T00:58:58;14.10;;;12.60;;
68653;SDS011;55636;51.108;13.622;2024-02-26T01:00:00;14.00;;;12.50;;
68653;SDS011;55636;51.108;13.622;2024-02-26T01:01:03;13.90;;;12.50;;
68653;SDS011;55636;51.108;13.622;2024-02-26T01:02:05;15.27;;;13.13;;
68653;SDS011;55636;51.108;13.622;2024-02-26T01:03:08;14.40;;;12.90;;
68653;SDS011;55636;51.108;13.622;2024-02-26T01:04:12;13.87;;;12.47;;
68653;SDS011;55636;51.108;13.622;2024-02-26T01:05:15;14.73;;;13.20;;
68653;SDS011;55636;51.108;13.622;2024-02-26T01:06:18;13.93;;;12.53;;
68653;SDS011;55636;51.108;13.622;2024-02-26T01:07:21;14.20;;;12.70;;
68653;SDS011;55636;51.108;13.622;2024-02-26T01:08:24;14.47;;;12.93;;
68653;SDS011;55636;51.108;13.622;2024-02-26T01:09:26;14.03;;;12.60;;
68653;SDS011;55636;51.108;13.622;2024-02-26T01:10:28;13.50;;;12.10;;
68653;SDS011;55636;51.108;13.622;2024-02-26T01:11:31;14.40;;;12.63;;
68653;SDS011;55636;51.108;13.622;2024-02-26T01:12:33;14.03;;;12.37;;
68653;SDS011;55636;51.108;13.622;2024-02-26T01:13:37;14.63;;;12.20;;
68653;SDS011;55636;51.108;13.622;2024-02-26T01:14:39;13.20;;;11.87;;
68653;SDS011;55636;51.108;13.622;2024-02-26T01:15:42;13.83;;;12.43;;
68653;SDS011;55636;51.108;13.622;2024-02-26T01:16:46;13.37;;;12.07;;
68653;SDS011;55636;51.108;13.622;2024-02-26T01:17:49;14.17;;;12.67;;
68653;SDS011;55636;51.108;13.622;2024-02-26T01:18:54;13.57;;;12.23;;
68653;SDS011;55636;51.108;13.622;2024-02-26T01:19:56;13.97;;;12.60;;
68653;SDS011;55636;51.108;13.622;2024-02-26T01:20:59;12.77;;;11.47;;
68653;SDS011;55636;51.108;13.622;2024-02-26T01:22:01;13.33;;;12.03;;
68653;SDS011;55636;51.108;13.622;2024-02-26T01:23:05;13.20;;;11.90;;
68653;SDS011;55636;51.108;13.622;2024-02-26T01:24:07;13.63;;;12.33;;
68653;SDS011;55636;51.108;13.622;2024-02-26T01:25:10;13.30;;;12.00;;
68653;SDS011;55636;51.108;13.622;2024-02-26T01:26:12;14.50;;;13.00;;
68653;SDS011;55636;51.108;13.622;2024-02-26T01:27:15;13.40;;;12.00;;
68653;SDS011;55636;51.108;13.622;2024-02-26T01:28:18;14.20;;;12.70;;
68653;SDS011;55636;51.108;13.622;2024-02-26T01:29:21;13.87;;;12.47;;
68653;SDS011;55636;51.108;13.622;2024-02-26T01:30:24;14.23;;;12.83;;
68653;SDS011;55636;51.108;13.622;2024-02-26T01:31:26;14.60;;;13.10;;
68653;SDS011;55636;51.108;13.622;2024-02-26T01:32:28;14.73;;;13.23;;
68653;SDS011;55636;51.108;13.622;2024-02-26T01:33:31;14.30;;;12.90;;
68653;SDS011;55636;51.108;13.622;2024-02-26T01:34:34;15.00;;;13.50;;
68653;SDS011;55636;51.108;13.622;2024-02-26T01:35:36;14.43;;;12.97;;
68653;SDS011;55636;51.108;13.622;2024-02-26T01:36:39;14.17;;;12.67;;
68653;SDS011;55636;51.108;13.622;2024-02-26T01:37:41;14.30;;;12.90;;
68653;SDS011;55636;51.108;13.622;2024-02-26T01:38:44;14.97;;;13.47;;
68653;SDS011;55636;51.108;13.622;2024-02-26T01:39:46;14.60;;;13.17;;
68653;SDS011;55636;51.108;13.622;2024-02-26T01:40:50;14.73;;;13.23;;
68653;SDS011;55636;51.108;13.622;2024-02-26T01:41:52;15.23;;;13.63;;
68653;SDS011;55636;51.108;13.622;2024-02-26T01:42:55;14.50;;;13.03;;
68653;SDS011;55636;51.108;13.622;2024-02-26T01:43:57;14.77;;;13.27;;
68653;SDS011;55636;51.108;13.622;2024-02-26T01:45:00;15.07;;;13.57;;
68653;SDS011;55636;51.108;13.622;2024-02-26T01:46:03;15.00;;;13.50;;
68653;SDS011;55636;51.108;13.622;2024-02-26T01:47:07;15.13;;;13.63;;
68653;SDS011;55636;51.108;13.622;2024-02-26T01:48:10;14.70;;;13.30;;
68653;SDS011;55636;51.108;13.622;2024-02-26T01:49:13;15.10;;;13.60;;
68653;SDS011;55636;51.108;13.622;2024-02-26T01:50:17;15.90;;;14.30;;
68653;SDS011;55636;51.108;13.622;2024-02-26T01:51:21;14.23;;;12.83;;
68653;SDS011;55636;51.108;13.622;2024-02-26T01:52:24;15.10;;;13.60;;
68653;SDS011;55636;51.108;13.622;2024-02-26T01:53:27;14.70;;;13.20;;
68653;SDS011;55636;51.108;13.622;2024-02-26T01:54:29;14.87;;;13.37;;
68653;SDS011;55636;51.108;13.622;2024-02-26T01:55:33;14.33;;;12.93;;
68653;SDS011;55636;51.108;13.622;2024-02-26T01:56:41;14.37;;;12.97;;
68653;SDS011;55636;51.108;13.622;2024-02-26T01:57:45;12.80;;;11.50;;
68653;SDS011;55636;51.108;13.622;2024-02-26T01:58:50;13.70;;;12.30;;
68653;SDS011;55636;51.108;13.622;2024-02-26T01:59:52;13.47;;;12.07;;
68653;SDS011;55636;51.108;13.622;2024-02-26T02:00:55;13.10;;;11.90;;
68653;SDS011;55636;51.108;13.622;2024-02-26T02:01:57;13.13;;;11.63;;
68653;SDS011;55636;51.108;13.622;2024-02-26T02:03:03;14.17;;;12.67;;
68653;SDS011;55636;51.108;13.622;2024-02-26T02:04:07;13.00;;;11.70;;
68653;SDS011;55636;51.108;13.622;2024-02-26T02:05:09;12.70;;;11.50;;
68653;SDS011;55636;51.108;13.622;2024-02-26T02:06:14;13.33;;;11.93;;
68653;SDS011;55636;51.108;13.622;2024-02-26T02:07:17;12.60;;;11.30;;
68653;SDS011;55636;51.108;13.622;2024-02-26T02:08:21;12.97;;;11.70;;
68653;SDS011;55636;51.108;13.622;2024-02-26T02:09:25;12.03;;;10.73;;
68653;SDS011;55636;51.108;13.622;2024-02-26T02:10:29;13.33;;;11.90;;
68653;SDS011;55636;51.108;13.622;2024-02-26T02:11:32;13.10;;;11.70;;
68653;SDS011;55636;51.108;13.622;2024-02-26T02:12:36;12.80;;;11.43;;
68653;SDS011;55636;51.108;13.622;2024-02-26T02:13:40;12.83;;;11.53;;
68653;SDS011;55636;51.108;13.622;2024-02-26T02:14:43;12.40;;;11.20;;
68653;SDS011;55636;51.108;13.622;2024-02-26T02:15:45;12.40;;;11.17;;
68653;SDS011;55636;51.108;13.622;2024-02-26T02:16:48;12.33;;;11.13;;
68653;SDS011;55636;51.108;13.622;2024-02-26T02:17:50;13.00;;;11.63;;
68653;SDS011;55636;51.108;13.622;2024-02-26T02:18:53;13.00;;;11.10;;
68653;SDS011;55636;51.108;13.622;2024-02-26T02:19:56;13.03;;;11.20;;
68653;SDS011;55636;51.108;13.622;2024-02-26T02:21:01;13.27;;;11.87;;
68653;SDS011;55636;51.108;13.622;2024-02-26T02:22:04;12.57;;;11.27;;
68653;SDS011;55636;51.108;13.622;2024-02-26T02:23:06;12.77;;;11.47;;
68653;SDS011;55636;51.108;13.622;2024-02-26T02:24:09;13.40;;;12.00;;
68653;SDS011;55636;51.108;13.622;2024-02-26T02:25:12;13.07;;;11.77;;
68653;SDS011;55636;51.108;13.622;2024-02-26T02:26:15;12.80;;;11.47;;
68653;SDS011;55636;51.108;13.622;2024-02-26T02:27:18;12.93;;;11.37;;
68653;SDS011;55636;51.108;13.622;2024-02-26T02:28:23;12.37;;;11.17;;
68653;SDS011;55636;51.108;13.622;2024-02-26T02:29:28;13.23;;;11.87;;
68653;SDS011;55636;51.108;13.622;2024-02-26T02:30:30;12.57;;;11.27;;
68653;SDS011;55636;51.108;13.622;2024-02-26T02:31:35;13.27;;;11.97;;
68653;SDS011;55636;51.108;13.622;2024-02-26T02:32:40;12.80;;;11.47;;
68653;SDS011;55636;51.108;13.622;2024-02-26T02:33:46;13.00;;;11.70;;
68653;SDS011;55636;51.108;13.622;2024-02-26T02:34:48;14.00;;;12.60;;
68653;SDS011;55636;51.108;13.622;2024-02-26T02:35:51;13.07;;;11.87;;
68653;SDS011;55636;51.108;13.622;2024-02-26T02:36:56;13.37;;;11.97;;
68653;SDS011;55636;51.108;13.622;2024-02-26T02:37:58;13.10;;;11.80;;
68653;SDS011;55636;51.108;13.622;2024-02-26T02:39:01;13.50;;;12.10;;
68653;SDS011;55636;51.108;13.622;2024-02-26T02:40:04;12.70;;;11.43;;
68653;SDS011;55636;51.108;13.622;2024-02-26T02:41:07;13.33;;;11.93;;
68653;SDS011;55636;51.108;13.622;2024-02-26T02:42:09;13.10;;;11.80;;
68653;SDS011;55636;51.108;13.622;2024-02-26T02:43:12;13.20;;;11.97;;
68653;SDS011;55636;51.108;13.622;2024-02-26T02:44:15;13.03;;;11.63;;
68653;SDS011;55636;51.108;13.622;2024-02-26T02:45:17;12.87;;;11.57;;
68653;SDS011;55636;51.108;13.622;2024-02-26T02:46:21;13.20;;;11.80;;
68653;SDS011;55636;51.108;13.622;2024-02-26T02:47:23;13.73;;;12.33;;
68653;SDS011;55636;51.108;13.622;2024-02-26T02:48:26;13.67;;;12.20;;
68653;SDS011;55636;51.108;13.622;2024-02-26T02:49:30;13.80;;;12.30;;
68653;SDS011;55636;51.108;13.622;2024-02-26T02:50:32;13.60;;;12.20;;
68653;SDS011;55636;51.108;13.622;2024-02-26T02:51:35;14.10;;;12.70;;
68653;SDS011;55636;51.108;13.622;2024-02-26T02:52:37;13.63;;;12.23;;
68653;SDS011;55636;51.108;13.622;2024-02-26T02:53:39;13.87;;;12.47;;
68653;SDS011;55636;51.108;13.622;2024-02-26T02:54:43;15.43;;;12.93;;
68653;SDS011;55636;51.108;13.622;2024-02-26T02:55:45;13.10;;;11.70;;
68653;SDS011;55636;51.108;13.622;2024-02-26T02:56:47;13.43;;;12.03;;
68653;SDS011;55636;51.108;13.622;2024-02-26T02:57:50;14.73;;;12.17;;
68653;SDS011;55636;51.108;13.622;2024-02-26T02:58:53;13.97;;;12.57;;
68653;SDS011;55636;51.108;13.622;2024-02-26T02:59:56;13.20;;;11.90;;
68653;SDS011;55636;51.108;13.622;2024-02-26T03:00:58;13.07;;;11.83;;
68653;SDS011;55636;51.108;13.622;2024-02-26T03:02:02;14.17;;;12.67;;
68653;SDS011;55636;51.108;13.622;2024-02-26T03:03:04;13.60;;;12.23;;
68653;SDS011;55636;51.108;13.622;2024-02-26T03:04:07;13.57;;;12.17;;
68653;SDS011;55636;51.108;13.622;2024-02-26T03:05:12;13.37;;;12.07;;
68653;SDS011;55636;51.108;13.622;2024-02-26T03:06:15;12.50;;;11.20;;
68653;SDS011;55636;51.108;13.622;2024-02-26T03:07:18;13.13;;;11.83;;
68653;SDS011;55636;51.108;13.622;2024-02-26T03:08:21;12.50;;;11.30;;
68653;SDS011;55636;51.108;13.622;2024-02-26T03:09:24;12.43;;;11.13;;
68653;SDS011;55636;51.108;13.622;2024-02-26T03:10:26;13.03;;;11.63;;
68653;SDS011;55636;51.108;13.622;2024-02-26T03:11:29;12.30;;;11.10;;
68653;SDS011;55636;51.108;13.622;2024-02-26T03:12:33;13.17;;;11.67;;
68653;SDS011;55636;51.108;13.622;2024-02-26T03:13:36;12.77;;;11.50;;
68653;SDS011;55636;51.108;13.622;2024-02-26T03:14:38;12.07;;;10.80;;
68653;SDS011;55636;51.108;13.622;2024-02-26T03:15:41;13.13;;;11.13;;
68653;SDS011;55636;51.108;13.622;2024-02-26T03:16:43;12.63;;;11.33;;
68653;SDS011;55636;51.108;13.622;2024-02-26T03:17:46;12.23;;;10.93;;
68653;SDS011;55636;51.108;13.622;2024-02-26T03:18:49;18.63;;;16.63;;
68653;SDS011;55636;51.108;13.622;2024-02-26T03:19:51;23.13;;;20.80;;
68653;SDS011;55636;51.108;13.622;2024-02-26T03:20:56;23.70;;;21.30;;
68653;SDS011;55636;51.108;13.622;2024-02-26T03:21:58;21.40;;;19.17;;
68653;SDS011;55636;51.108;13.622;2024-02-26T03:23:02;19.67;;;17.20;;
68653;SDS011;55636;51.108;13.622;2024-02-26T03:24:05;17.53;;;15.73;;
68653;SDS011;55636;51.108;13.622;2024-02-26T03:25:08;15.53;;;13.93;;
68653;SDS011;55636;51.108;13.622;2024-02-26T03:26:11;14.97;;;13.47;;
68653;SDS011;55636;51.108;13.622;2024-02-26T03:27:16;15.67;;;14.07;;
68653;SDS011;55636;51.108;13.622;2024-02-26T03:28:19;14.00;;;12.60;;
68653;SDS011;55636;51.108;13.622;2024-02-26T03:29:22;14.47;;;13.07;;
68653;SDS011;55636;51.108;13.622;2024-02-26T03:30:24;14.67;;;13.07;;
68653;SDS011;55636;51.108;13.622;2024-02-26T03:31:27;14.97;;;13.37;;
68653;SDS011;55636;51.108;13.622;2024-02-26T03:32:29;14.40;;;12.90;;
68653;SDS011;55636;51.108;13.622;2024-02-26T03:33:32;14.10;;;12.70;;
68653;SDS011;55636;51.108;13.622;2024-02-26T03:34:35;15.00;;;13.50;;
68653;SDS011;55636;51.108;13.622;2024-02-26T03:35:37;15.23;;;13.07;;
68653;SDS011;55636;51.108;13.622;2024-02-26T03:36:40;14.10;;;12.63;;
68653;SDS011;55636;51.108;13.622;2024-02-26T03:37:43;14.10;;;12.73;;
68653;SDS011;55636;51.108;13.622;2024-02-26T03:38:45;14.33;;;12.83;;
68653;SDS011;55636;51.108;13.622;2024-02-26T03:39:49;13.83;;;12.43;;
68653;SDS011;55636;51.108;13.622;2024-02-26T03:40:51;14.53;;;12.90;;
68653;SDS011;55636;51.108;13.622;2024-02-26T03:41:53;14.23;;;12.73;;
68653;SDS011;55636;51.108;13.622;2024-02-26T03:42:57;14.30;;;12.80;;
68653;SDS011;55636;51.108;13.622;2024-02-26T03:44:00;15.23;;;13.63;;
68653;SDS011;55636;51.108;13.622;2024-02-26T03:45:04;14.33;;;12.57;;
68653;SDS011;55636;51.108;13.622;2024-02-26T03:46:07;14.80;;;13.30;;
68653;SDS011;55636;51.108;13.622;2024-02-26T03:47:11;14.20;;;12.80;;
68653;SDS011;55636;51.108;13.622;2024-02-26T03:48:15;14.07;;;12.57;;
68653;SDS011;55636;51.108;13.622;2024-02-26T03:49:17;13.90;;;12.50;;
68653;SDS011;55636;51.108;13.622;2024-02-26T03:50:20;14.47;;;13.07;;
68653;SDS011;55636;51.108;13.622;2024-02-26T03:51:24;14.27;;;12.87;;
68653;SDS011;55636;51.108;13.622;2024-02-26T03:52:28;14.30;;;12.80;;
68653;SDS011;55636;51.108;13.622;2024-02-26T03:53:31;14.37;;;12.97;;
68653;SDS011;55636;51.108;13.622;2024-02-26T03:54:33;13.53;;;12.17;;
68653;SDS011;55636;51.108;13.622;2024-02-26T03:55:35;14.70;;;13.30;;
68653;SDS011;55636;51.108;13.622;2024-02-26T03:56:38;13.47;;;12.10;;
68653;SDS011;55636;51.108;13.622;2024-02-26T03:57:40;13.93;;;12.53;;
68653;SDS011;55636;51.108;13.622;2024-02-26T03:58:42;13.60;;;12.20;;
68653;SDS011;55636;51.108;13.622;2024-02-26T03:59:45;13.00;;;11.70;;
68653;SDS011;55636;51.108;13.622;2024-02-26T04:00:47;14.20;;;12.80;;
68653;SDS011;55636;51.108;13.622;2024-02-26T04:01:50;13.70;;;12.30;;
68653;SDS011;55636;51.108;13.622;2024-02-26T04:02:53;13.60;;;12.20;;
68653;SDS011;55636;51.108;13.622;2024-02-26T04:03:56;13.53;;;12.13;;
68653;SDS011;55636;51.108;13.622;2024-02-26T04:04:58;13.50;;;12.20;;
68653;SDS011;55636;51.108;13.622;2024-02-26T04:06:01;13.23;;;11.93;;
68653;SDS011;55636;51.108;13.622;2024-02-26T04:07:05;13.57;;;12.17;;
68653;SDS011;55636;51.108;13.622;2024-02-26T04:08:07;13.17;;;11.87;;
68653;SDS011;55636;51.108;13.622;2024-02-26T04:09:09;13.17;;;11.97;;
68653;SDS011;55636;51.108;13.622;2024-02-26T04:10:12;13.47;;;11.93;;
68653;SDS011;55636;51.108;13.622;2024-02-26T04:11:15;14.10;;;12.00;;
68653;SDS011;55636;51.108;13.622;2024-02-26T04:12:20;12.30;;;11.10;;
68653;SDS011;55636;51.108;13.622;2024-02-26T04:13:22;12.80;;;11.50;;
68653;SDS011;55636;51.108;13.622;2024-02-26T04:14:26;12.87;;;11.63;;
68653;SDS011;55636;51.108;13.622;2024-02-26T04:15:28;12.90;;;11.60;;
68653;SDS011;55636;51.108;13.622;2024-02-26T04:16:31;13.47;;;12.13;;
68653;SDS011;55636;51.108;13.622;2024-02-26T04:17:33;12.83;;;11.50;;
68653;SDS011;55636;51.108;13.622;2024-02-26T04:18:37;12.33;;;11.13;;
68653;SDS011;55636;51.108;13.622;2024-02-26T04:19:40;12.87;;;11.60;;
68653;SDS011;55636;51.108;13.622;2024-02-26T04:20:43;12.27;;;11.07;;
68653;SDS011;55636;51.108;13.622;2024-02-26T04:21:46;12.83;;;11.53;;
68653;SDS011;55636;51.108;13.622;2024-02-26T04:22:48;13.17;;;11.47;;
68653;SDS011;55636;51.108;13.622;2024-02-26T04:23:50;13.07;;;11.77;;
68653;SDS011;55636;51.108;13.622;2024-02-26T04:24:53;13.10;;;11.80;;
68653;SDS011;55636;51.108;13.622;2024-02-26T04:25:55;13.10;;;11.80;;
68653;SDS011;55636;51.108;13.622;2024-02-26T04:26:58;12.53;;;11.30;;
68653;SDS011;55636;51.108;13.622;2024-02-26T04:28:00;12.53;;;11.23;;
68653;SDS011;55636;51.108;13.622;2024-02-26T04:29:02;12.23;;;10.93;;
68653;SDS011;55636;51.108;13.622;2024-02-26T04:30:05;12.30;;;11.10;;
68653;SDS011;55636;51.108;13.622;2024-02-26T04:31:08;13.10;;;11.80;;
68653;SDS011;55636;51.108;13.622;2024-02-26T04:32:11;12.17;;;10.97;;
68653;SDS011;55636;51.108;13.622;2024-02-26T04:33:14;12.83;;;11.57;;
68653;SDS011;55636;51.108;13.622;2024-02-26T04:34:16;12.37;;;11.13;;
68653;SDS011;55636;51.108;13.622;2024-02-26T04:35:19;12.00;;;10.80;;
68653;SDS011;55636;51.108;13.622;2024-02-26T04:36:21;13.40;;;11.90;;
68653;SDS011;55636;51.108;13.622;2024-02-26T04:37:24;12.63;;;11.43;;
68653;SDS011;55636;51.108;13.622;2024-02-26T04:38:26;12.47;;;11.27;;
68653;SDS011;55636;51.108;13.622;2024-02-26T04:39:28;12.40;;;11.17;;
68653;SDS011;55636;51.108;13.622;2024-02-26T04:40:31;14.03;;;11.60;;
68653;SDS011;55636;51.108;13.622;2024-02-26T04:41:34;12.23;;;11.03;;
68653;SDS011;55636;51.108;13.622;2024-02-26T04:42:36;13.70;;;12.30;;
68653;SDS011;55636;51.108;13.622;2024-02-26T04:43:39;13.30;;;12.00;;
68653;SDS011;55636;51.108;13.622;2024-02-26T04:44:43;13.07;;;11.77;;
68653;SDS011;55636;51.108;13.622;2024-02-26T04:45:46;12.90;;;11.60;;
68653;SDS011;55636;51.108;13.622;2024-02-26T04:46:49;12.83;;;11.53;;
68653;SDS011;55636;51.108;13.622;2024-02-26T04:47:51;13.00;;;11.70;;
68653;SDS011;55636;51.108;13.622;2024-02-26T04:48:53;13.67;;;12.13;;
68653;SDS011;55636;51.108;13.622;2024-02-26T04:49:58;13.53;;;12.17;;
68653;SDS011;55636;51.108;13.622;2024-02-26T04:51:01;13.87;;;12.47;;
68653;SDS011;55636;51.108;13.622;2024-02-26T04:52:04;13.77;;;12.17;;
68653;SDS011;55636;51.108;13.622;2024-02-26T04:53:06;14.50;;;12.90;;
68653;SDS011;55636;51.108;13.622;2024-02-26T04:54:09;14.93;;;13.33;;
68653;SDS011;55636;51.108;13.622;2024-02-26T04:55:11;14.60;;;13.07;;
68653;SDS011;55636;51.108;13.622;2024-02-26T04:56:14;14.53;;;13.07;;
68653;SDS011;55636;51.108;13.622;2024-02-26T04:57:16;14.70;;;12.63;;
68653;SDS011;55636;51.108;13.622;2024-02-26T04:58:20;13.73;;;12.33;;
68653;SDS011;55636;51.108;13.622;2024-02-26T04:59:24;14.70;;;13.10;;
68653;SDS011;55636;51.108;13.622;2024-02-26T05:00:26;13.63;;;12.23;;
68653;SDS011;55636;51.108;13.622;2024-02-26T05:01:29;14.53;;;12.60;;
68653;SDS011;55636;51.108;13.622;2024-02-26T05:02:31;15.00;;;12.53;;
68653;SDS011;55636;51.108;13.622;2024-02-26T05:03:36;13.53;;;12.13;;
68653;SDS011;55636;51.108;13.622;2024-02-26T05:04:38;13.70;;;12.30;;
68653;SDS011;55636;51.108;13.622;2024-02-26T05:05:41;13.97;;;12.50;;
68653;SDS011;55636;51.108;13.622;2024-02-26T05:06:45;13.53;;;12.13;;
68653;SDS011;55636;51.108;13.622;2024-02-26T05:07:50;13.47;;;12.13;;
68653;SDS011;55636;51.108;13.622;2024-02-26T05:08:53;13.83;;;12.27;;
68653;SDS011;55636;51.108;13.622;2024-02-26T05:09:55;13.17;;;11.83;;
68653;SDS011;55636;51.108;13.622;2024-02-26T05:10:58;14.07;;;12.67;;
68653;SDS011;55636;51.108;13.622;2024-02-26T05:12:01;14.23;;;12.00;;
68653;SDS011;55636;51.108;13.622;2024-02-26T05:13:04;14.03;;;12.53;;
68653;SDS011;55636;51.108;13.622;2024-02-26T05:14:09;13.03;;;11.63;;
68653;SDS011;55636;51.108;13.622;2024-02-26T05:15:12;12.77;;;11.43;;
68653;SDS011;55636;51.108;13.622;2024-02-26T05:16:20;14.97;;;13.40;;
68653;SDS011;55636;51.108;13.622;2024-02-26T05:17:26;14.63;;;13.03;;
68653;SDS011;55636;51.108;13.622;2024-02-26T05:18:29;14.20;;;12.60;;
68653;SDS011;55636;51.108;13.622;2024-02-26T05:19:32;14.17;;;12.47;;
68653;SDS011;55636;51.108;13.622;2024-02-26T05:20:35;13.53;;;11.87;;
68653;SDS011;55636;51.108;13.622;2024-02-26T05:21:38;12.87;;;11.53;;
68653;SDS011;55636;51.108;13.622;2024-02-26T05:22:40;13.47;;;12.07;;
68653;SDS011;55636;51.108;13.622;2024-02-26T05:23:43;13.77;;;12.07;;
68653;SDS011;55636;51.108;13.622;2024-02-26T05:24:45;12.40;;;11.03;;
68653;SDS011;55636;51.108;13.622;2024-02-26T05:25:48;13.10;;;11.70;;
68653;SDS011;55636;51.108;13.622;2024-02-26T05:26:50;12.80;;;11.50;;
68653;SDS011;55636;51.108;13.622;2024-02-26T05:27:53;13.33;;;11.93;;
68653;SDS011;55636;51.108;13.622;2024-02-26T05:28:55;13.90;;;12.03;;
68653;SDS011;55636;51.108;13.622;2024-02-26T05:30:02;12.83;;;11.53;;
68653;SDS011;55636;51.108;13.622;2024-02-26T05:31:05;15.37;;;11.53;;
68653;SDS011;55636;51.108;13.622;2024-02-26T05:32:08;13.10;;;11.70;;
68653;SDS011;55636;51.108;13.622;2024-02-26T05:33:10;12.50;;;11.20;;
68653;SDS011;55636;51.108;13.622;2024-02-26T05:34:16;13.43;;;11.73;;
68653;SDS011;55636;51.108;13.622;2024-02-26T05:35:19;12.90;;;11.60;;
68653;SDS011;55636;51.108;13.622;2024-02-26T05:36:23;13.20;;;11.67;;
68653;SDS011;55636;51.108;13.622;2024-02-26T05:37:25;12.40;;;11.10;;
68653;SDS011;55636;51.108;13.622;2024-02-26T05:38:28;14.03;;;11.50;;
68653;SDS011;55636;51.108;13.622;2024-02-26T05:39:30;13.80;;;11.70;;
68653;SDS011;55636;51.108;13.622;2024-02-26T05:40:33;12.13;;;10.93;;
68653;SDS011;55636;51.108;13.622;2024-02-26T05:41:35;13.27;;;11.87;;
68653;SDS011;55636;51.108;13.622;2024-02-26T05:42:37;17.30;;;14.33;;
68653;SDS011;55636;51.108;13.622;2024-02-26T05:43:40;17.40;;;14.47;;
68653;SDS011;55636;51.108;13.622;2024-02-26T05:44:42;17.47;;;14.67;;
68653;SDS011;55636;51.108;13.622;2024-02-26T05:45:45;20.10;;;15.13;;
68653;SDS011;55636;51.108;13.622;2024-02-26T05:46:47;19.10;;;15.33;;
68653;SDS011;55636;51.108;13.622;2024-02-26T05:47:51;21.37;;;16.00;;
68653;SDS011;55636;51.108;13.622;2024-02-26T05:48:53;23.07;;;16.70;;
68653;SDS011;55636;51.108;13.622;2024-02-26T05:49:56;19.07;;;14.60;;
68653;SDS011;55636;51.108;13.622;2024-02-26T05:51:01;16.67;;;13.93;;
68653;SDS011;55636;51.108;13.622;2024-02-26T05:52:03;16.20;;;13.30;;
68653;SDS011;55636;51.108;13.622;2024-02-26T05:53:06;16.80;;;13.37;;
68653;SDS011;55636;51.108;13.622;2024-02-26T05:54:09;14.30;;;12.80;;
68653;SDS011;55636;51.108;13.622;2024-02-26T05:55:12;16.00;;;13.67;;
68653;SDS011;55636;51.108;13.622;2024-02-26T05:56:15;14.63;;;13.03;;
68653;SDS011;55636;51.108;13.622;2024-02-26T05:57:18;15.23;;;13.27;;
68653;SDS011;55636;51.108;13.622;2024-02-26T05:58:20;15.67;;;13.43;;
68653;SDS011;55636;51.108;13.622;2024-02-26T05:59:23;24.33;;;21.63;;
68653;SDS011;55636;51.108;13.622;2024-02-26T06:00:26;24.97;;;20.10;;
68653;SDS011;55636;51.108;13.622;2024-02-26T06:01:28;20.33;;;18.17;;
68653;SDS011;55636;51.108;13.622;2024-02-26T06:02:32;19.90;;;17.60;;